createdAt,value
2023-10-18T00:00:02.169Z,2.5
2023-10-18T00:01:01.623Z,2.5
2023-10-18T00:02:02.214Z,2.5
2023-10-18T00:03:02.396Z,2.5
2023-10-18T00:04:02.491Z,2.5
2023-10-18T00:05:02.613Z,2.4
2023-10-18T00:07:02.657Z,2.4
2023-10-18T00:09:02.740Z,2.4
2023-10-18T00:10:02.546Z,2.4
2023-10-18T00:11:02.633Z,2.4
2023-10-18T00:13:02.685Z,2.4
2023-10-18T00:14:02.509Z,2.4
2023-10-18T00:15:02.545Z,2.4
2023-10-18T00:16:02.037Z,2.4
2023-10-18T00:17:01.980Z,2.4
2023-10-18T00:18:02.315Z,2.3
2023-10-18T00:19:02.126Z,2.3
2023-10-18T00:20:02.885Z,2.3
2023-10-18T00:22:02.218Z,2.3
2023-10-18T00:23:02.177Z,2.3
2023-10-18T00:24:02.772Z,2.3
2023-10-18T00:25:02.326Z,2.3
2023-10-18T00:26:02.518Z,2.3
2023-10-18T00:27:02.732Z,2.3
2023-10-18T00:28:02.508Z,2.2
2023-10-18T00:29:01.943Z,2.3
2023-10-18T00:30:02.377Z,2.3
2023-10-18T00:33:02.464Z,2.2
2023-10-18T00:34:02.758Z,2.2
2023-10-18T00:35:02.160Z,2.2
2023-10-18T00:36:02.146Z,2.2
2023-10-18T00:37:01.929Z,2.2
2023-10-18T00:38:02.342Z,2.2
2023-10-18T00:39:02.055Z,2.2
2023-10-18T00:40:02.145Z,2.1
2023-10-18T00:41:02.195Z,2.1
2023-10-18T00:42:02.634Z,2.1
2023-10-18T00:43:02.936Z,2.1
2023-10-18T00:44:02.706Z,2
2023-10-18T00:45:02.913Z,2
2023-10-18T00:46:02.694Z,2
2023-10-18T00:47:02.038Z,2
2023-10-18T00:48:01.985Z,2
2023-10-18T00:49:01.956Z,2
2023-10-18T00:50:02.398Z,2
2023-10-18T00:51:02.305Z,2
2023-10-18T00:53:02.549Z,2
2023-10-18T00:54:02.426Z,2
2023-10-18T00:55:02.257Z,1.9
2023-10-18T00:58:02.199Z,1.9
2023-10-18T00:59:02.358Z,1.9
2023-10-18T01:00:02.189Z,1.9
2023-10-18T01:01:02.679Z,1.9
2023-10-18T01:03:02.812Z,1.8
2023-10-18T01:04:02.374Z,1.8
2023-10-18T01:05:02.462Z,1.8
2023-10-18T01:06:02.878Z,1.8
2023-10-18T01:07:02.604Z,1.8
2023-10-18T01:08:02.701Z,1.7
2023-10-18T01:09:02.337Z,1.7
2023-10-18T01:10:02.837Z,1.7
2023-10-18T01:11:02.920Z,1.7
2023-10-18T01:12:03.028Z,1.7
2023-10-18T01:13:01.854Z,1.8
2023-10-18T01:14:02.190Z,1.7
2023-10-18T01:15:01.704Z,1.7
2023-10-18T01:16:02.237Z,1.7
2023-10-18T01:17:01.963Z,1.7
2023-10-18T01:18:02.094Z,1.7
2023-10-18T01:19:02.353Z,1.7
2023-10-18T01:20:02.509Z,1.7
2023-10-18T01:21:02.201Z,1.7
2023-10-18T01:22:02.302Z,1.7
2023-10-18T01:23:02.036Z,1.7
2023-10-18T01:24:02.518Z,1.6
2023-10-18T01:25:02.248Z,1.6
2023-10-18T01:26:02.623Z,1.7
2023-10-18T01:27:02.292Z,1.7
2023-10-18T01:28:02.831Z,1.6
2023-10-18T01:29:02.493Z,1.6
2023-10-18T01:30:02.997Z,1.7
2023-10-18T01:32:02.543Z,1.7
2023-10-18T01:33:02.927Z,1.6
2023-10-18T01:34:02.333Z,1.6
2023-10-18T01:35:02.225Z,1.6
2023-10-18T01:37:02.034Z,1.6
2023-10-18T01:40:02.241Z,1.6
2023-10-18T01:42:02.106Z,1.6
2023-10-18T01:43:02.778Z,1.6
2023-10-18T01:44:02.619Z,1.6
2023-10-18T01:45:02.486Z,1.6
2023-10-18T01:46:02.908Z,1.6
2023-10-18T01:48:02.548Z,1.6
2023-10-18T01:49:02.343Z,1.7
2023-10-18T01:50:02.740Z,1.7
2023-10-18T01:51:02.745Z,1.7
2023-10-18T01:52:02.051Z,1.7
2023-10-18T01:53:02.474Z,1.7
2023-10-18T01:54:02.221Z,1.7
2023-10-18T01:56:01.960Z,1.7
2023-10-18T01:57:02.615Z,1.7
2023-10-18T01:58:01.985Z,1.6
2023-10-18T01:59:02.886Z,1.6
2023-10-18T02:00:02.375Z,1.6
2023-10-18T02:01:02.391Z,1.6
2023-10-18T02:02:02.097Z,1.6
2023-10-18T02:03:02.156Z,1.6
2023-10-18T02:04:02.210Z,1.6
2023-10-18T02:05:02.319Z,1.6
2023-10-18T02:07:01.941Z,1.6
2023-10-18T02:08:02.663Z,1.6
2023-10-18T02:09:02.827Z,1.6
2023-10-18T02:10:02.428Z,1.6
2023-10-18T02:11:02.597Z,1.6
2023-10-18T02:12:02.330Z,1.6
2023-10-18T02:13:02.669Z,1.6
2023-10-18T02:14:02.379Z,1.6
2023-10-18T02:15:02.484Z,1.6
2023-10-18T02:16:02.601Z,1.6
2023-10-18T02:17:02.555Z,1.6
2023-10-18T02:18:02.582Z,1.6
2023-10-18T02:19:02.722Z,1.6
2023-10-18T02:20:02.172Z,1.6
2023-10-18T02:21:02.249Z,1.6
2023-10-18T02:22:02.766Z,1.6
2023-10-18T02:23:02.650Z,1.6
2023-10-18T02:24:01.805Z,1.6
2023-10-18T02:25:01.906Z,1.6
2023-10-18T02:26:02.388Z,1.5
2023-10-18T02:27:01.862Z,1.5
2023-10-18T02:28:02.081Z,1.5
2023-10-18T02:30:02.639Z,1.5
2023-10-18T02:31:02.773Z,1.5
2023-10-18T02:32:02.602Z,1.5
2023-10-18T02:33:02.187Z,1.5
2023-10-18T02:35:02.645Z,1.4
2023-10-18T02:36:02.607Z,1.5
2023-10-18T02:37:02.804Z,1.4
2023-10-18T02:40:05.735Z,1.5
2023-10-18T02:42:02.672Z,1.4
2023-10-18T02:43:01.991Z,1.4
2023-10-18T02:44:01.977Z,1.4
2023-10-18T02:45:02.446Z,1.4
2023-10-18T02:46:02.291Z,1.4
2023-10-18T02:47:02.341Z,1.4
2023-10-18T02:49:02.023Z,1.4
2023-10-18T02:50:02.178Z,1.4
2023-10-18T02:51:02.005Z,1.4
2023-10-18T02:52:02.998Z,1.3
2023-10-18T02:53:01.957Z,1.3
2023-10-18T02:54:01.949Z,1.3
2023-10-18T02:55:02.073Z,1.3
2023-10-18T02:56:02.165Z,1.3
2023-10-18T02:57:02.214Z,1.3
2023-10-18T02:58:02.841Z,1.3
2023-10-18T02:59:02.213Z,1.3
2023-10-18T03:00:02.475Z,1.3
2023-10-18T03:01:02.267Z,1.3
2023-10-18T03:02:02.078Z,1.3
2023-10-18T03:03:02.782Z,1.3
2023-10-18T03:04:02.443Z,1.2
2023-10-18T03:05:02.074Z,1.2
2023-10-18T03:06:02.149Z,1.3
2023-10-18T03:07:02.095Z,1.2
2023-10-18T03:08:02.811Z,1.3
2023-10-18T03:09:01.841Z,1.3
2023-10-18T03:10:02.123Z,1.2
2023-10-18T03:11:01.879Z,1.2
2023-10-18T03:12:02.808Z,1.3
2023-10-18T03:13:02.053Z,1.2
2023-10-18T03:14:02.074Z,1.2
2023-10-18T03:16:02.643Z,1.2
2023-10-18T03:17:03.079Z,1.2
2023-10-18T03:18:02.930Z,1.2
2023-10-18T03:19:02.970Z,1.2
2023-10-18T03:20:01.992Z,1.2
2023-10-18T03:21:01.776Z,1.2
2023-10-18T03:22:02.143Z,1.2
2023-10-18T03:23:02.979Z,1.2
2023-10-18T03:24:02.545Z,1.2
2023-10-18T03:25:02.212Z,1.2
2023-10-18T03:26:02.691Z,1.2
2023-10-18T03:27:02.751Z,1.2
2023-10-18T03:30:02.213Z,1.2
2023-10-18T03:31:02.483Z,1.2
2023-10-18T03:32:01.941Z,1.2
2023-10-18T03:33:02.485Z,1.2
2023-10-18T03:34:02.356Z,1.2
2023-10-18T03:35:02.092Z,1.2
2023-10-18T03:36:18.195Z,1.2
2023-10-18T03:37:01.834Z,1.2
2023-10-18T03:38:02.247Z,1.2
2023-10-18T03:39:02.541Z,1.2
2023-10-18T03:40:02.063Z,1.2
2023-10-18T03:41:02.286Z,1.2
2023-10-18T03:42:02.410Z,1.2
2023-10-18T03:43:01.926Z,1.2
2023-10-18T03:44:02.602Z,1.2
2023-10-18T03:45:02.605Z,1.2
2023-10-18T03:46:02.220Z,1.2
2023-10-18T03:47:02.594Z,1.2
2023-10-18T03:48:02.296Z,1.2
2023-10-18T03:49:02.096Z,1.2
2023-10-18T03:50:02.532Z,1.2
2023-10-18T03:51:02.409Z,1.2
2023-10-18T03:52:02.293Z,1.2
2023-10-18T03:55:02.041Z,1.2
2023-10-18T03:56:02.416Z,1.2
2023-10-18T03:57:02.618Z,1.2
2023-10-18T03:59:02.375Z,1.2
2023-10-18T04:00:02.445Z,1.1
2023-10-18T04:02:02.375Z,1.2
2023-10-18T04:03:02.251Z,1.1
2023-10-18T04:04:02.625Z,1.2
2023-10-18T04:05:02.063Z,1.2
2023-10-18T04:06:02.265Z,1.2
2023-10-18T04:07:02.176Z,1.2
2023-10-18T04:08:02.346Z,1.1
2023-10-18T04:09:02.439Z,1.2
2023-10-18T04:10:02.340Z,1.2
2023-10-18T04:11:02.291Z,1.2
2023-10-18T04:12:01.828Z,1.2
2023-10-18T04:13:02.547Z,1.2
2023-10-18T04:14:02.000Z,1.1
2023-10-18T04:16:02.078Z,1.2
2023-10-18T04:17:02.561Z,1.1
2023-10-18T04:18:02.261Z,1.2
2023-10-18T04:19:02.639Z,1.2
2023-10-18T04:20:02.700Z,1.2
2023-10-18T04:21:01.796Z,1.2
2023-10-18T04:22:01.845Z,1.2
2023-10-18T04:23:02.138Z,1.1
2023-10-18T04:24:02.250Z,1.1
2023-10-18T04:25:03.072Z,1.2
2023-10-18T04:26:02.045Z,1.1
2023-10-18T04:27:02.303Z,1.2
2023-10-18T04:28:01.926Z,1.2
2023-10-18T04:29:02.233Z,1.2
2023-10-18T04:30:05.004Z,1.2
2023-10-18T04:31:02.156Z,1.2
2023-10-18T04:33:01.712Z,1.2
2023-10-18T04:34:02.229Z,1.2
2023-10-18T04:35:02.123Z,1.2
2023-10-18T04:36:02.385Z,1.2
2023-10-18T04:37:02.904Z,1.2
2023-10-18T04:38:02.498Z,1.2
2023-10-18T04:39:02.294Z,1.2
2023-10-18T04:40:01.901Z,1.2
2023-10-18T04:41:02.302Z,1.3
2023-10-18T04:42:02.572Z,1.3
2023-10-18T04:43:01.700Z,1.3
2023-10-18T04:44:02.006Z,1.3
2023-10-18T04:45:02.359Z,1.3
2023-10-18T04:46:02.762Z,1.3
2023-10-18T04:47:01.969Z,1.3
2023-10-18T04:48:02.476Z,1.3
2023-10-18T04:50:02.482Z,1.3
2023-10-18T04:51:02.456Z,1.4
2023-10-18T04:52:02.491Z,1.4
2023-10-18T04:53:02.787Z,1.4
2023-10-18T04:54:02.306Z,1.4
2023-10-18T04:55:02.865Z,1.4
2023-10-18T04:57:02.033Z,1.4
2023-10-18T04:58:02.110Z,1.4
2023-10-18T04:59:02.508Z,1.4
2023-10-18T05:00:02.580Z,1.4
2023-10-18T05:01:02.173Z,1.4
2023-10-18T05:02:02.180Z,1.4
2023-10-18T05:03:02.299Z,1.4
2023-10-18T05:04:02.304Z,1.4
2023-10-18T05:05:05.217Z,1.5
2023-10-18T05:06:02.587Z,1.5
2023-10-18T05:07:02.206Z,1.5
2023-10-18T05:08:01.732Z,1.5
2023-10-18T05:09:01.754Z,1.5
2023-10-18T05:10:02.585Z,1.5
2023-10-18T05:11:01.988Z,1.6
2023-10-18T05:12:02.740Z,1.6
2023-10-18T05:13:02.113Z,1.6
2023-10-18T05:14:02.391Z,1.6
2023-10-18T05:15:02.759Z,1.6
2023-10-18T05:16:02.524Z,1.6
2023-10-18T05:19:01.933Z,1.6
2023-10-18T05:20:02.680Z,1.6
2023-10-18T05:21:02.371Z,1.6
2023-10-18T05:22:02.219Z,1.6
2023-10-18T05:24:02.355Z,1.6
2023-10-18T05:25:02.582Z,1.6
2023-10-18T05:26:02.070Z,1.6
2023-10-18T05:27:02.941Z,1.6
2023-10-18T05:28:02.618Z,1.7
2023-10-18T05:29:01.976Z,1.6
2023-10-18T05:30:02.091Z,1.6
2023-10-18T05:32:02.702Z,1.6
2023-10-18T05:33:02.655Z,1.6
2023-10-18T05:34:02.314Z,1.6
2023-10-18T05:35:13.040Z,1.6
2023-10-18T05:36:02.658Z,1.6
2023-10-18T05:37:02.993Z,1.6
2023-10-18T05:38:02.259Z,1.6
2023-10-18T05:39:02.349Z,1.6
2023-10-18T05:40:01.813Z,1.6
2023-10-18T05:41:02.594Z,1.6
2023-10-18T05:42:02.026Z,1.6
2023-10-18T05:43:02.455Z,1.6
2023-10-18T05:44:02.846Z,1.6
2023-10-18T05:45:02.501Z,1.6
2023-10-18T05:46:02.426Z,1.6
2023-10-18T05:48:02.919Z,1.7
2023-10-18T05:49:02.622Z,1.7
2023-10-18T05:50:02.102Z,1.7
2023-10-18T05:51:02.645Z,1.7
2023-10-18T05:53:02.253Z,1.7
2023-10-18T05:55:02.133Z,1.7
2023-10-18T05:56:02.762Z,1.8
2023-10-18T05:57:02.008Z,1.8
2023-10-18T05:58:02.484Z,1.7
2023-10-18T05:59:02.755Z,1.7
2023-10-18T06:00:02.480Z,1.8
2023-10-18T06:01:01.993Z,1.8
2023-10-18T06:02:02.744Z,1.8
2023-10-18T06:04:02.011Z,1.8
2023-10-18T06:06:02.795Z,1.8
2023-10-18T06:07:02.717Z,1.8
2023-10-18T06:08:02.239Z,1.8
2023-10-18T06:10:02.798Z,1.8
2023-10-18T06:12:02.037Z,1.8
2023-10-18T06:14:02.805Z,1.8
2023-10-18T06:15:02.536Z,1.9
2023-10-18T06:17:02.370Z,1.9
2023-10-18T06:18:02.044Z,2
2023-10-18T06:19:01.841Z,2
2023-10-18T06:20:02.231Z,2
2023-10-18T06:21:02.572Z,2
2023-10-18T06:22:02.538Z,2
2023-10-18T06:23:02.090Z,2
2023-10-18T06:26:01.790Z,2
2023-10-18T06:27:01.832Z,2.1
2023-10-18T06:28:01.870Z,2.1
2023-10-18T06:29:02.473Z,2
2023-10-18T06:30:02.412Z,2.1
2023-10-18T06:31:01.933Z,2.2
2023-10-18T06:32:02.826Z,2.2
2023-10-18T06:34:02.604Z,2.2
2023-10-18T06:35:02.980Z,2.2
2023-10-18T06:36:02.206Z,2.2
2023-10-18T06:37:02.536Z,2.3
2023-10-18T06:38:02.083Z,2.3
2023-10-18T06:39:02.527Z,2.3
2023-10-18T06:40:02.421Z,2.4
2023-10-18T06:41:06.987Z,2.3
2023-10-18T06:42:02.329Z,2.3
2023-10-18T06:43:02.204Z,2.4
2023-10-18T06:44:02.716Z,2.4
2023-10-18T06:45:02.500Z,2.4
2023-10-18T06:46:02.709Z,2.4
2023-10-18T06:48:02.544Z,2.4
2023-10-18T06:50:17.467Z,2.5
2023-10-18T06:51:02.498Z,2.5
2023-10-18T06:52:02.689Z,2.5
2023-10-18T06:53:02.042Z,2.6
2023-10-18T06:54:02.843Z,2.6
2023-10-18T06:56:04.314Z,2.6
2023-10-18T06:57:02.601Z,2.7
2023-10-18T06:58:02.219Z,2.7
2023-10-18T06:59:02.149Z,2.7
2023-10-18T07:00:02.192Z,2.8
2023-10-18T07:01:02.014Z,2.8
2023-10-18T07:05:01.050Z,2.8
2023-10-18T07:06:02.157Z,2.8
2023-10-18T07:07:02.133Z,2.8
2023-10-18T07:08:02.559Z,2.9
2023-10-18T07:09:01.990Z,2.9
2023-10-18T07:10:02.457Z,2.9
2023-10-18T07:12:02.009Z,3
2023-10-18T07:13:02.064Z,3
2023-10-18T07:14:02.691Z,3
2023-10-18T07:15:02.095Z,3
2023-10-18T07:17:02.057Z,3
2023-10-18T07:18:01.990Z,3.1
2023-10-18T07:19:02.861Z,3.1
2023-10-18T07:20:02.143Z,3.2
2023-10-18T07:21:02.814Z,3.2
2023-10-18T07:22:02.520Z,3.2
2023-10-18T07:24:02.100Z,3.2
2023-10-18T07:26:08.734Z,3.3
2023-10-18T07:27:02.208Z,3.4
2023-10-18T07:28:02.633Z,3.4
2023-10-18T07:29:02.595Z,3.5
2023-10-18T07:30:01.891Z,3.5
2023-10-18T07:31:01.983Z,3.6
2023-10-18T07:32:03.104Z,3.6
2023-10-18T07:33:02.432Z,3.6
2023-10-18T07:34:01.890Z,3.6
2023-10-18T07:35:02.027Z,3.7
2023-10-18T07:36:01.922Z,3.7
2023-10-18T07:37:01.845Z,3.8
2023-10-18T07:39:02.834Z,3.8
2023-10-18T07:40:02.488Z,3.9
2023-10-18T07:41:02.447Z,3.9
2023-10-18T07:42:02.774Z,4
2023-10-18T07:43:02.530Z,4
2023-10-18T07:44:02.745Z,4
2023-10-18T07:45:02.168Z,4.1
2023-10-18T07:46:02.296Z,4.2
2023-10-18T07:47:02.647Z,4.2
2023-10-18T07:48:02.548Z,4.2
2023-10-18T07:50:02.583Z,4.3
2023-10-18T07:51:02.174Z,4.3
2023-10-18T07:52:02.794Z,4.3
2023-10-18T07:53:02.057Z,4.4
2023-10-18T07:54:02.696Z,4.4
2023-10-18T07:55:01.821Z,4.4
2023-10-18T07:56:02.307Z,4.5
2023-10-18T07:57:04.350Z,4.5
2023-10-18T07:58:02.917Z,4.6
2023-10-18T07:59:02.818Z,4.6
2023-10-18T08:00:01.987Z,4.7
2023-10-18T08:01:02.680Z,4.8
2023-10-18T08:02:02.402Z,4.8
2023-10-18T08:03:02.648Z,4.9
2023-10-18T08:05:02.291Z,5
2023-10-18T08:06:01.999Z,5.1
2023-10-18T08:07:02.225Z,5.1
2023-10-18T08:08:02.605Z,5.2
2023-10-18T08:09:01.907Z,5.2
2023-10-18T08:10:02.592Z,5.3
2023-10-18T08:11:02.546Z,5.3
2023-10-18T08:12:02.006Z,5.4
2023-10-18T08:13:02.108Z,5.4
2023-10-18T08:15:01.980Z,5.4
2023-10-18T08:16:02.947Z,5.5
2023-10-18T08:17:01.886Z,5.5
2023-10-18T08:18:02.490Z,5.6
2023-10-18T08:20:02.722Z,5.6
2023-10-18T08:21:02.647Z,5.6
2023-10-18T08:22:02.783Z,5.6
2023-10-18T08:23:01.839Z,5.6
2023-10-18T08:25:02.340Z,5.7
2023-10-18T08:26:02.984Z,5.8
2023-10-18T08:27:02.436Z,5.8
2023-10-18T08:28:02.806Z,5.9
2023-10-18T08:29:02.249Z,5.9
2023-10-18T08:30:02.635Z,6
2023-10-18T08:31:02.520Z,6
2023-10-18T08:32:02.998Z,6
2023-10-18T08:33:01.974Z,6
2023-10-18T08:34:02.563Z,6
2023-10-18T08:35:02.018Z,6.1
2023-10-18T08:37:02.559Z,6.2
2023-10-18T08:38:02.774Z,6.2
2023-10-18T08:39:02.173Z,6.2
2023-10-18T08:40:02.639Z,6.2
2023-10-18T08:41:02.598Z,6.3
2023-10-18T08:42:02.533Z,6.3
2023-10-18T08:43:02.748Z,6.4
2023-10-18T08:44:02.781Z,6.4
2023-10-18T08:45:01.954Z,6.4
2023-10-18T08:46:02.819Z,6.4
2023-10-18T08:47:02.464Z,6.5
2023-10-18T08:48:02.713Z,6.6
2023-10-18T08:51:02.364Z,6.7
2023-10-18T08:52:02.276Z,6.8
2023-10-18T08:53:02.781Z,6.8
2023-10-18T08:55:02.529Z,6.8
2023-10-18T08:56:01.914Z,6.9
2023-10-18T08:57:02.420Z,6.9
2023-10-18T08:58:01.872Z,6.9
2023-10-18T08:59:04.519Z,7
2023-10-18T09:00:02.740Z,7
2023-10-18T09:01:02.497Z,7
2023-10-18T09:02:02.556Z,7.1
2023-10-18T09:04:02.215Z,7.2
2023-10-18T09:05:02.118Z,7.2
2023-10-18T09:06:01.740Z,7.2
2023-10-18T09:07:02.425Z,7.3
2023-10-18T09:08:02.362Z,7.4
2023-10-18T09:09:02.594Z,7.4
2023-10-18T09:10:02.282Z,7.5
2023-10-18T09:11:02.506Z,7.5
2023-10-18T09:12:02.316Z,7.6
2023-10-18T09:13:02.651Z,7.6
2023-10-18T09:14:02.335Z,7.6
2023-10-18T09:15:02.540Z,7.7
2023-10-18T09:16:03.137Z,7.8
2023-10-18T09:17:02.299Z,7.8
2023-10-18T09:18:02.002Z,7.8
2023-10-18T09:19:01.761Z,7.9
2023-10-18T09:20:02.773Z,8
2023-10-18T09:21:02.665Z,8
2023-10-18T09:22:02.305Z,8
2023-10-18T09:23:02.189Z,8.1
2023-10-18T09:24:02.472Z,8.1
2023-10-18T09:25:02.313Z,8.2
2023-10-18T09:26:02.107Z,8.4
2023-10-18T09:27:02.237Z,8.4
2023-10-18T09:28:02.678Z,8.4
2023-10-18T09:29:02.732Z,8.5
2023-10-18T09:30:01.795Z,8.5
2023-10-18T09:31:02.113Z,8.6
2023-10-18T09:32:02.351Z,8.7
2023-10-18T09:33:02.725Z,8.8
2023-10-18T09:34:02.067Z,8.8
2023-10-18T09:35:02.958Z,8.8
2023-10-18T09:37:02.638Z,9
2023-10-18T09:38:02.350Z,9.1
2023-10-18T09:39:02.513Z,9.1
2023-10-18T09:40:02.286Z,9.2
2023-10-18T09:41:02.276Z,9.2
2023-10-18T09:42:02.103Z,9.4
2023-10-18T09:43:02.038Z,9.4
2023-10-18T09:45:02.181Z,9.5
2023-10-18T09:46:01.951Z,9.6
2023-10-18T09:47:02.038Z,9.6
2023-10-18T09:48:02.382Z,9.7
2023-10-18T09:49:02.499Z,9.8
2023-10-18T09:50:03.094Z,9.9
2023-10-18T09:51:02.862Z,9.9
2023-10-18T09:52:02.463Z,9.9
2023-10-18T09:53:02.174Z,10
2023-10-18T09:54:02.541Z,10
2023-10-18T09:55:02.712Z,10
2023-10-18T09:56:02.036Z,10.1
2023-10-18T09:57:03.181Z,10.2
2023-10-18T09:58:01.960Z,10.2
2023-10-18T09:59:04.832Z,10.3
2023-10-18T10:01:02.760Z,10.4
2023-10-18T10:02:02.752Z,10.5
2023-10-18T10:03:02.283Z,10.7
2023-10-18T10:04:02.115Z,10.7
2023-10-18T10:05:02.027Z,10.8
2023-10-18T10:06:02.166Z,10.8
2023-10-18T10:07:02.234Z,10.9
2023-10-18T10:08:02.714Z,11
2023-10-18T10:09:02.395Z,11.1
2023-10-18T10:10:02.237Z,11.2
2023-10-18T10:11:02.691Z,11.3
2023-10-18T10:12:02.375Z,11.4
2023-10-18T10:13:02.366Z,11.4
2023-10-18T10:14:02.792Z,11.5
2023-10-18T10:15:02.243Z,11.6
2023-10-18T10:16:02.061Z,11.6
2023-10-18T10:18:02.767Z,11.7
2023-10-18T10:19:02.670Z,11.7
2023-10-18T10:20:02.331Z,11.8
2023-10-18T10:21:02.368Z,11.8
2023-10-18T10:22:02.810Z,11.9
2023-10-18T10:23:02.510Z,11.8
2023-10-18T10:24:02.598Z,11.9
2023-10-18T10:25:20.142Z,11.9
2023-10-18T10:26:22.030Z,12
2023-10-18T10:28:02.491Z,12
2023-10-18T10:29:01.942Z,12
2023-10-18T10:30:02.090Z,12.1
2023-10-18T10:31:02.462Z,12
2023-10-18T10:32:01.801Z,12.2
2023-10-18T10:33:02.019Z,12.2
2023-10-18T10:34:02.923Z,12.2
2023-10-18T10:35:02.633Z,12.3
2023-10-18T10:36:02.729Z,12.3
2023-10-18T10:37:01.876Z,12.4
2023-10-18T10:38:02.569Z,12.4
2023-10-18T10:39:02.889Z,12.4
2023-10-18T10:40:02.012Z,12.5
2023-10-18T10:41:02.658Z,12.6
2023-10-18T10:42:02.842Z,12.6
2023-10-18T10:43:02.183Z,12.7
2023-10-18T10:44:01.944Z,12.7
2023-10-18T10:45:02.091Z,12.8
2023-10-18T10:47:02.169Z,13.1
2023-10-18T10:48:02.490Z,13
2023-10-18T10:50:02.209Z,13.2
2023-10-18T10:51:02.147Z,13.4
2023-10-18T10:52:02.578Z,13.4
2023-10-18T10:53:02.237Z,13.6
2023-10-18T10:54:02.772Z,13.6
2023-10-18T10:55:02.504Z,13.7
2023-10-18T10:56:02.977Z,13.7
2023-10-18T10:57:02.641Z,13.7
2023-10-18T10:58:02.928Z,13.8
2023-10-18T10:59:02.021Z,13.8
2023-10-18T11:00:01.792Z,13.8
2023-10-18T11:01:02.037Z,13.8
2023-10-18T11:02:02.993Z,13.8
2023-10-18T11:04:02.215Z,13.7
2023-10-18T11:05:02.210Z,13.6
2023-10-18T11:06:02.572Z,13.7
2023-10-18T11:07:01.979Z,13.7
2023-10-18T11:08:02.174Z,13.6
2023-10-18T11:09:02.662Z,13.6
2023-10-18T11:10:02.652Z,13.6
2023-10-18T11:11:02.227Z,13.6
2023-10-18T11:12:02.822Z,13.6
2023-10-18T11:13:02.740Z,13.6
2023-10-18T11:14:02.324Z,13.6
2023-10-18T11:15:02.764Z,13.5
2023-10-18T11:16:02.471Z,13.5
2023-10-18T11:18:01.929Z,13.6
2023-10-18T11:19:02.699Z,13.6
2023-10-18T11:20:02.040Z,13.7
2023-10-18T11:21:02.813Z,13.8
2023-10-18T11:23:02.756Z,14
2023-10-18T11:24:02.775Z,14
2023-10-18T11:26:02.235Z,14
2023-10-18T11:27:02.437Z,14
2023-10-18T11:28:02.435Z,14.1
2023-10-18T11:29:02.099Z,14.2
2023-10-18T11:30:02.525Z,14.3
2023-10-18T11:31:02.400Z,14.3
2023-10-18T11:32:01.996Z,14.3
2023-10-18T11:33:02.635Z,14.4
2023-10-18T11:34:02.390Z,14.4
2023-10-18T11:35:02.307Z,14.4
2023-10-18T11:36:01.933Z,14.4
2023-10-18T11:37:02.040Z,14.4
2023-10-18T11:38:01.952Z,14.3
2023-10-18T11:39:02.148Z,14.3
2023-10-18T11:40:02.496Z,14.3
2023-10-18T11:41:03.499Z,14.3
2023-10-18T11:42:02.221Z,14.1
2023-10-18T11:43:01.974Z,14
2023-10-18T11:44:02.735Z,14
2023-10-18T11:45:01.987Z,14
2023-10-18T11:46:02.571Z,14
2023-10-18T11:47:02.257Z,14
2023-10-18T11:48:02.367Z,14
2023-10-18T11:49:02.462Z,14.1
2023-10-18T11:51:02.496Z,14.1
2023-10-18T11:52:02.561Z,14.1
2023-10-18T11:53:02.407Z,14.1
2023-10-18T11:54:01.976Z,14.1
2023-10-18T11:55:02.000Z,14.1
2023-10-18T11:56:05.884Z,14
2023-10-18T11:57:02.573Z,14.2
2023-10-18T11:58:02.932Z,14.2
2023-10-18T11:59:01.802Z,14.2
2023-10-18T12:00:01.959Z,14.3
2023-10-18T12:01:01.884Z,14.4
2023-10-18T12:02:02.292Z,14.4
2023-10-18T12:04:02.566Z,14.4
2023-10-18T12:05:02.155Z,14.3
2023-10-18T12:06:02.143Z,14.3
2023-10-18T12:07:02.332Z,14.3
2023-10-18T12:08:01.822Z,14.2
2023-10-18T12:09:02.492Z,14.1
2023-10-18T12:10:02.212Z,14.2
2023-10-18T12:12:01.858Z,14.1
2023-10-18T12:14:01.724Z,14
2023-10-18T12:15:02.584Z,14
2023-10-18T12:16:02.373Z,14
2023-10-18T12:17:02.570Z,14
2023-10-18T12:19:02.652Z,13.9
2023-10-18T12:21:02.236Z,13.9
2023-10-18T12:22:02.717Z,13.9
2023-10-18T12:23:01.992Z,13.9
2023-10-18T12:24:02.497Z,13.8
2023-10-18T12:26:02.853Z,13.8
2023-10-18T12:27:02.164Z,13.8
2023-10-18T12:28:02.092Z,13.7
2023-10-18T12:29:02.632Z,13.7
2023-10-18T12:30:02.289Z,13.7
2023-10-18T12:31:02.298Z,13.7
2023-10-18T12:32:02.643Z,13.6
2023-10-18T12:33:02.663Z,13.6
2023-10-18T12:34:02.567Z,13.6
2023-10-18T12:36:02.001Z,13.6
2023-10-18T12:37:02.848Z,13.6
2023-10-18T12:38:02.594Z,13.6
2023-10-18T12:39:02.956Z,13.6
2023-10-18T12:40:02.245Z,13.6
2023-10-18T12:41:02.137Z,13.6
2023-10-18T12:42:02.679Z,13.6
2023-10-18T12:43:02.678Z,13.6
2023-10-18T12:44:02.528Z,13.6
2023-10-18T12:45:01.570Z,13.6
2023-10-18T12:46:02.350Z,13.7
2023-10-18T12:48:02.924Z,13.6
2023-10-18T12:49:02.968Z,13.7
2023-10-18T12:50:02.575Z,13.8
2023-10-18T12:51:02.660Z,13.7
2023-10-18T12:52:02.084Z,13.7
2023-10-18T12:53:02.297Z,13.7
2023-10-18T12:54:01.903Z,13.7
2023-10-18T12:55:02.720Z,13.7
2023-10-18T12:56:02.889Z,13.7
2023-10-18T12:57:02.360Z,13.7
2023-10-18T12:58:02.209Z,13.7
2023-10-18T12:59:02.072Z,13.7
2023-10-18T13:00:02.957Z,13.7
2023-10-18T13:01:02.038Z,13.7
2023-10-18T13:02:02.070Z,13.7
2023-10-18T13:03:03.171Z,13.7
2023-10-18T13:04:02.158Z,13.6
2023-10-18T13:05:02.920Z,13.6
2023-10-18T13:06:01.954Z,13.6
2023-10-18T13:07:03.153Z,13.6
2023-10-18T13:11:01.910Z,13.6
2023-10-18T13:12:02.850Z,13.6
2023-10-18T13:13:02.387Z,13.6
2023-10-18T13:14:02.701Z,13.6
2023-10-18T13:15:02.508Z,13.6
2023-10-18T13:16:02.400Z,13.6
2023-10-18T13:17:04.374Z,13.6
2023-10-18T13:18:02.547Z,13.5
2023-10-18T13:20:05.421Z,13.4
2023-10-18T13:21:02.091Z,13.4
2023-10-18T13:22:02.432Z,13.5
2023-10-18T13:23:02.551Z,13.4
2023-10-18T13:24:02.537Z,13.4
2023-10-18T13:25:02.760Z,13.4
2023-10-18T13:26:02.310Z,13.4
2023-10-18T13:27:01.940Z,13.4
2023-10-18T13:30:03.881Z,13.4
2023-10-18T13:31:02.092Z,13.4
2023-10-18T13:32:01.962Z,13.4
2023-10-18T13:33:02.165Z,13.4
2023-10-18T13:34:02.065Z,13.4
2023-10-18T13:36:02.219Z,13.4
2023-10-18T13:37:01.722Z,13.4
2023-10-18T13:39:02.594Z,13.4
2023-10-18T13:40:02.662Z,13.4
2023-10-18T13:41:02.135Z,13.4
2023-10-18T13:42:02.391Z,13.4
2023-10-18T13:43:02.645Z,13.4
2023-10-18T13:44:03.119Z,13.5
2023-10-18T13:45:04.278Z,13.4
2023-10-18T13:46:02.506Z,13.4
2023-10-18T13:48:02.106Z,13.4
2023-10-18T13:49:02.746Z,13.4
2023-10-18T13:50:02.354Z,13.4
2023-10-18T13:51:02.084Z,13.4
2023-10-18T13:52:02.318Z,13.3
2023-10-18T13:53:02.428Z,13.3
2023-10-18T13:54:01.987Z,13.3
2023-10-18T13:55:02.239Z,13.3
2023-10-18T13:56:02.430Z,13.3
2023-10-18T13:57:02.379Z,13.4
2023-10-18T13:59:02.891Z,13.3
2023-10-18T14:00:02.400Z,13.4
2023-10-18T14:01:02.168Z,13.3
2023-10-18T14:02:02.330Z,13.4
2023-10-18T14:03:02.177Z,13.3
2023-10-18T14:04:02.798Z,13.3
2023-10-18T14:05:02.800Z,13.3
2023-10-18T14:08:02.509Z,13.3
2023-10-18T14:09:02.053Z,13.2
2023-10-18T14:10:01.880Z,13.2
2023-10-18T14:11:02.146Z,13.2
2023-10-18T14:12:02.485Z,13.2
2023-10-18T14:13:02.557Z,13.2
2023-10-18T14:15:02.496Z,13.1
2023-10-18T14:17:02.753Z,13.2
2023-10-18T14:18:02.312Z,13.1
2023-10-18T14:19:04.317Z,13.1
2023-10-18T14:20:14.792Z,13.1
2023-10-18T14:21:02.577Z,13.2
2023-10-18T14:22:02.038Z,13.2
2023-10-18T14:23:01.890Z,13.1
2023-10-18T14:24:02.745Z,13.1
2023-10-18T14:25:02.650Z,13.2
2023-10-18T14:26:02.557Z,13.2
2023-10-18T14:27:02.037Z,13.1
2023-10-18T14:28:02.421Z,13.2
2023-10-18T14:29:02.630Z,13.1
2023-10-18T14:30:02.005Z,13.2
2023-10-18T14:31:02.529Z,13.1
2023-10-18T14:32:02.119Z,13.2
2023-10-18T14:33:02.468Z,13.1
2023-10-18T14:34:04.854Z,13.1
2023-10-18T14:35:02.672Z,13.1
2023-10-18T14:36:02.452Z,13.1
2023-10-18T14:37:02.898Z,13.1
2023-10-18T14:38:03.003Z,13
2023-10-18T14:39:02.553Z,13.1
2023-10-18T14:40:02.204Z,13.1
2023-10-18T14:41:08.967Z,13.1
2023-10-18T14:42:02.244Z,13.1
2023-10-18T14:43:02.036Z,13.1
2023-10-18T14:44:03.362Z,13
2023-10-18T14:45:02.664Z,13
2023-10-18T14:46:02.386Z,13
2023-10-18T14:47:02.167Z,13
2023-10-18T14:48:02.342Z,13
2023-10-18T14:49:02.433Z,13
2023-10-18T14:50:02.697Z,13
2023-10-18T14:51:02.135Z,12.9
2023-10-18T14:52:02.676Z,12.9
2023-10-18T14:53:02.725Z,12.9
2023-10-18T14:54:02.782Z,12.8
2023-10-18T14:55:01.877Z,12.9
2023-10-18T14:57:02.940Z,12.8
2023-10-18T14:58:02.466Z,12.8
2023-10-18T14:59:02.312Z,12.8
2023-10-18T15:00:02.148Z,12.8
2023-10-18T15:01:02.650Z,12.7
2023-10-18T15:02:02.251Z,12.7
2023-10-18T15:03:03.075Z,12.8
2023-10-18T15:05:02.320Z,12.6
2023-10-18T15:06:02.741Z,12.7
2023-10-18T15:08:02.020Z,12.6
2023-10-18T15:09:02.046Z,12.5
2023-10-18T15:10:01.941Z,12.5
2023-10-18T15:11:02.273Z,12.5
2023-10-18T15:13:01.910Z,12.5
2023-10-18T15:14:02.400Z,12.4
2023-10-18T15:15:02.246Z,12.4
2023-10-18T15:16:01.817Z,12.4
2023-10-18T15:17:02.128Z,12.4
2023-10-18T15:18:02.889Z,12.3
2023-10-18T15:20:02.833Z,12.3
2023-10-18T15:22:02.545Z,12.2
2023-10-18T15:23:02.670Z,12.2
2023-10-18T15:24:02.772Z,12.2
2023-10-18T15:27:02.742Z,12.2
2023-10-18T15:28:02.427Z,12.2
2023-10-18T15:29:02.329Z,12.2
2023-10-18T15:30:02.235Z,12.2
2023-10-18T15:32:02.494Z,12.2
2023-10-18T15:33:01.974Z,12.2
2023-10-18T15:34:02.282Z,12.1
2023-10-18T15:35:02.944Z,12.1